Fort Meade, MD

1:53 AM EDT on April 25, 2017 (GMT -0400)
Tipton

Weather History for KFME - October, 2011

Change the Weather History Date:

Monday, October 17, 2011

  Actual Average (KBWI) Record (KBWI)
Temperature  
Mean Temperature 61 °F -  
Max Temperature 71 °F 65 °F 90 °F (1938)
Min Temperature 51 °F 46 °F 33 °F (1982)
Degree Days  
Heating Degree Days 4    
Growing Degree Days 11 (Base 50)    
Moisture  
Dew Point 46 °F    
Average Humidity 61    
Maximum Humidity 94    
Minimum Humidity 38    
Precipitation  
Precipitation 0.00 in - - ()
Sea Level Pressure  
Sea Level Pressure 29.81 in    
Wind  
Wind Speed 7 mph (WSW)    
Max Wind Speed 14 mph    
Max Gust Speed 21 mph    
Visibility 10 miles    
Events      
Averages and records for this station are not official NWS values.
T = Trace of Precipitation, MM = Missing Value Source: NWS Daily Summary

Daily Weather History Graph

Daily Weather History Graph

Search for Another Location

Airport or City:

Trip Planner

Search our weather history database for the weather conditions in past years. The results will help you decide how hot, cold, wet, or windy it might be!

Date:

Astronomy

Oct. 17, 2011 Rise Set
Actual Time 7:18 AM EDT 6:25 PM EDT
Civil Twilight 6:51 AM EDT 6:52 PM EDT
Nautical Twilight 6:20 AM EDT 7:23 PM EDT
Astronomical Twilight 5:49 AM EDT 7:54 PM EDT
Moon 10:06 PM EDT (10/17) 12:21 PM EDT (10/17)
Length of Visible Light 12h 01m
Length of Day
11h 07m
Waning Gibbous, 74% of the Moon is Illuminated
Oct 17
Waning Gibbous
Oct 19
Last Quarter
Oct 26
New
Nov 2
First Quarter
Nov 10
Full

Hourly Weather History & Observations

Time (EDT) Temp. Dew Point Humidity Pressure Visibility Wind Dir Wind Speed Gust Speed Precip Events Conditions
12:00 AM 64.4 °F 46.4 °F 52% 29.72 in 10.0 mi SW 11.5 mph 20.7 mph N/A   Clear
12:21 AM 64.4 °F 46.4 °F 52% 29.71 in 10.0 mi SW 12.7 mph 18.4 mph N/A   Clear
12:42 AM 64.4 °F 46.4 °F 52% 29.71 in 10.0 mi SW 13.8 mph 20.7 mph N/A   Clear
1:06 AM 64.4 °F 46.4 °F 52% 29.70 in 10.0 mi SW 13.8 mph 20.7 mph N/A   Clear
1:27 AM 64.4 °F 46.4 °F 52% 29.70 in 10.0 mi SW 11.5 mph 20.7 mph N/A   Clear
1:48 AM 62.6 °F 46.4 °F 55% 29.70 in 10.0 mi SW 10.4 mph 18.4 mph N/A   Clear
2:09 AM 62.6 °F 46.4 °F 55% 29.70 in 10.0 mi WSW 10.4 mph 16.1 mph N/A   Clear
2:30 AM 62.6 °F 48.2 °F 59% 29.70 in 10.0 mi WSW 9.2 mph - N/A   Clear
2:51 AM 60.8 °F 48.2 °F 63% 29.72 in 10.0 mi WNW 12.7 mph 18.4 mph N/A   Clear
3:12 AM 60.8 °F 46.4 °F 59% 29.74 in 10.0 mi WNW 4.6 mph - N/A   Clear
3:33 AM 59.0 °F 48.2 °F 67% 29.74 in 10.0 mi Calm Calm - N/A   Clear
3:57 AM 55.4 °F 48.2 °F 77% 29.76 in 10.0 mi NW 3.5 mph - N/A   Clear
4:18 AM 53.6 °F 48.2 °F 82% 29.77 in 10.0 mi Calm Calm - N/A   Clear
4:39 AM 53.6 °F 50.0 °F 88% 29.78 in 10.0 mi Calm Calm - N/A   Clear
5:00 AM 53.6 °F 50.0 °F 88% 29.80 in 10.0 mi Calm Calm - N/A   Clear
5:21 AM 53.6 °F 50.0 °F 88% 29.81 in 10.0 mi Calm Calm - N/A   Clear
5:42 AM 51.8 °F 50.0 °F 94% 29.81 in 10.0 mi Calm Calm - N/A   Scattered Clouds
6:24 AM 53.6 °F 48.2 °F 82% 29.83 in 10.0 mi WNW 3.5 mph - N/A   Mostly Cloudy
7:09 AM 57.2 °F 42.8 °F 59% 29.84 in 10.0 mi WNW 4.6 mph - N/A   Overcast
7:30 AM 57.2 °F 42.8 °F 59% 29.85 in 10.0 mi WNW 6.9 mph - N/A   Overcast
7:51 AM 57.2 °F 41.0 °F 55% 29.85 in 10.0 mi West 5.8 mph - N/A   Overcast
8:12 AM 55.4 °F 42.8 °F 63% 29.87 in 10.0 mi West 4.6 mph - N/A   Overcast
8:33 AM 55.4 °F 42.8 °F 63% 29.88 in 10.0 mi West 5.8 mph - N/A   Overcast
8:54 AM 55.4 °F 44.6 °F 67% 29.88 in 10.0 mi NW 3.5 mph - N/A   Overcast
9:15 AM 55.4 °F 44.6 °F 67% 29.89 in 10.0 mi Calm Calm - N/A   Overcast
9:36 AM 57.2 °F 42.8 °F 59% 29.90 in 10.0 mi NW 3.5 mph - N/A   Overcast
9:57 AM 57.2 °F 42.8 °F 59% 29.90 in 10.0 mi NW 3.5 mph - N/A   Overcast
10:18 AM 59.0 °F 42.8 °F 55% 29.90 in 10.0 mi Calm Calm - N/A   Overcast
10:42 AM 60.8 °F 41.0 °F 48% 29.89 in 10.0 mi NW 4.6 mph - N/A   Overcast
11:03 AM 60.8 °F 41.0 °F 48% 29.89 in 10.0 mi WNW 5.8 mph - N/A   Overcast
11:24 AM 62.6 °F 41.0 °F 45% 29.89 in 10.0 mi West 3.5 mph - N/A   Mostly Cloudy
11:45 AM 64.4 °F 41.0 °F 42% 29.88 in 10.0 mi West 4.6 mph - N/A   Scattered Clouds
12:27 PM 64.4 °F 41.0 °F 42% 29.87 in 10.0 mi Calm Calm - N/A   Clear
12:48 PM 68.0 °F 42.8 °F 40% 29.85 in 10.0 mi WSW 3.5 mph - N/A   Clear
1:09 PM 68.0 °F 42.8 °F 40% 29.85 in 10.0 mi WSW 6.9 mph - N/A   Clear
1:27 PM 69.8 °F 42.8 °F 38% 29.84 in 10.0 mi West 8.1 mph - N/A   Clear
2:12 PM 69.8 °F 44.6 °F 40% 29.82 in 10.0 mi WSW 5.8 mph - N/A   Clear
2:36 PM 71.6 °F 46.4 °F 41% 29.81 in 10.0 mi West 6.9 mph - N/A   Clear
2:57 PM 71.6 °F 46.4 °F 41% 29.80 in 10.0 mi SW 9.2 mph - N/A   Clear
3:18 PM 71.6 °F 46.4 °F 41% 29.80 in 10.0 mi West 9.2 mph - N/A   Clear
3:39 PM 69.8 °F 46.4 °F 43% 29.80 in 10.0 mi SW 4.6 mph - N/A   Clear
4:00 PM 69.8 °F 46.4 °F 43% 29.80 in 10.0 mi SW 4.6 mph - N/A   Clear
4:21 PM 69.8 °F 46.4 °F 43% 29.81 in 10.0 mi SW 4.6 mph - N/A   Clear
4:42 PM 68.0 °F 46.4 °F 46% 29.81 in 10.0 mi SW 9.2 mph - N/A   Clear
5:03 PM 68.0 °F 46.4 °F 46% 29.81 in 10.0 mi SW 6.9 mph - N/A   Clear
5:24 PM 64.4 °F 48.2 °F 56% 29.81 in 10.0 mi SSW 5.8 mph - N/A   Clear
5:45 PM 62.6 °F 51.8 °F 68% 29.81 in 10.0 mi SSW 4.6 mph - N/A   Clear
6:09 PM 59.0 °F 51.8 °F 77% 29.82 in 10.0 mi Calm Calm - N/A   Clear
6:30 PM 57.2 °F 51.8 °F 82% 29.82 in 10.0 mi Calm Calm - N/A   Clear
6:51 PM 55.4 °F 51.8 °F 88% 29.83 in 10.0 mi SSE 3.5 mph - N/A   Clear
7:12 PM 55.4 °F 51.8 °F 88% 29.84 in 10.0 mi Calm Calm - N/A   Clear
7:33 PM 53.6 °F 51.8 °F 94% 29.84 in 10.0 mi Calm Calm - N/A   Clear
7:54 PM 53.6 °F 50.0 °F 88% 29.84 in 10.0 mi Calm Calm - N/A   Clear
8:15 PM 51.8 °F 50.0 °F 94% 29.84 in 10.0 mi Calm Calm - N/A   Clear
8:36 PM 51.8 °F 50.0 °F 94% 29.84 in 10.0 mi Calm Calm - N/A   Clear
8:57 PM 51.8 °F 50.0 °F 94% 29.84 in 10.0 mi Calm Calm - N/A   Clear
9:18 PM 51.8 °F 50.0 °F 94% 29.85 in 10.0 mi Calm Calm - N/A   Clear
9:42 PM 50.0 °F 50.0 °F 100% 29.85 in 10.0 mi Calm Calm - N/A   Clear
10:03 PM 50.0 °F 48.2 °F 94% 29.86 in 10.0 mi Calm Calm - N/A   Clear
10:24 PM 50.0 °F 46.4 °F 87% 29.86 in 10.0 mi Calm Calm - N/A   Clear
11:06 PM 48.2 °F 46.4 °F 93% 29.86 in 10.0 mi Calm Calm - N/A   Clear
11:27 PM 46.4 °F 46.4 °F 100% 29.85 in 7.0 mi Calm Calm - N/A   Clear
11:48 PM 46.4 °F 46.4 °F 100% 29.85 in 10.0 mi Calm Calm - N/A   Clear